sensor_id;sensor_type;location;lat;lon;timestamp;P1;P2;P0
46381;PMS5003;66809;52.974;-2.514;2023-06-26T00:01:40;2.1166666666666667;1.7333333333333334;
46381;PMS5003;66809;52.974;-2.514;2023-06-26T00:03:40;2.1;1.7;
46381;PMS5003;66809;52.974;-2.514;2023-06-26T00:05:40;2.15;1.75;
46381;PMS5003;66809;52.974;-2.514;2023-06-26T00:07:40;2.066666666666667;1.7166666666666666;
46381;PMS5003;66809;52.974;-2.514;2023-06-26T00:09:40;2.05;1.6833333333333333;
46381;PMS5003;66809;52.974;-2.514;2023-06-26T00:11:41;2.033333333333333;1.6833333333333333;
46381;PMS5003;66809;52.974;-2.514;2023-06-26T00:13:40;1.9666666666666666;1.6333333333333333;
46381;PMS5003;66809;52.974;-2.514;2023-06-26T00:15:40;1.9666666666666666;1.6166666666666667;
46381;PMS5003;66809;52.974;-2.514;2023-06-26T00:17:41;1.9666666666666666;1.6333333333333333;
46381;PMS5003;66809;52.974;-2.514;2023-06-26T00:19:40;1.9666666666666666;1.6333333333333333;
46381;PMS5003;66809;52.974;-2.514;2023-06-26T00:21:40;1.95;1.6166666666666667;
46381;PMS5003;66809;52.974;-2.514;2023-06-26T00:23:41;1.9166666666666667;1.5833333333333333;
46381;PMS5003;66809;52.974;-2.514;2023-06-26T00:25:40;1.9166666666666667;1.5833333333333333;
46381;PMS5003;66809;52.974;-2.514;2023-06-26T00:27:40;1.95;1.5833333333333333;
46381;PMS5003;66809;52.974;-2.514;2023-06-26T00:29:40;1.9666666666666666;1.5666666666666667;
46381;PMS5003;66809;52.974;-2.514;2023-06-26T00:31:40;2.0;1.5833333333333333;
46381;PMS5003;66809;52.974;-2.514;2023-06-26T00:33:41;2.0;1.5333333333333334;
46381;PMS5003;66809;52.974;-2.514;2023-06-26T00:35:40;1.9166666666666667;1.4833333333333334;
46381;PMS5003;66809;52.974;-2.514;2023-06-26T00:37:40;1.8833333333333333;1.4166666666666667;
46381;PMS5003;66809;52.974;-2.514;2023-06-26T00:39:41;1.9166666666666667;1.4333333333333333;
46381;PMS5003;66809;52.974;-2.514;2023-06-26T00:41:40;2.0;1.45;
46381;PMS5003;66809;52.974;-2.514;2023-06-26T00:43:40;1.9333333333333333;1.4166666666666667;
46381;PMS5003;66809;52.974;-2.514;2023-06-26T00:45:41;1.8833333333333333;1.4333333333333333;
46381;PMS5003;66809;52.974;-2.514;2023-06-26T00:47:41;1.8833333333333333;1.4333333333333333;
46381;PMS5003;66809;52.974;-2.514;2023-06-26T00:49:41;1.8666666666666667;1.4166666666666667;
46381;PMS5003;66809;52.974;-2.514;2023-06-26T00:51:40;1.9;1.4;
46381;PMS5003;66809;52.974;-2.514;2023-06-26T00:53:41;1.95;1.45;
46381;PMS5003;66809;52.974;-2.514;2023-06-26T00:55:40;2.033333333333333;1.4833333333333334;
46381;PMS5003;66809;52.974;-2.514;2023-06-26T00:57:41;2.033333333333333;1.4666666666666666;
46381;PMS5003;66809;52.974;-2.514;2023-06-26T00:59:40;2.1;1.55;
46381;PMS5003;66809;52.974;-2.514;2023-06-26T01:01:41;2.1333333333333333;1.6;
46381;PMS5003;66809;52.974;-2.514;2023-06-26T01:03:40;2.1166666666666667;1.6;
46381;PMS5003;66809;52.974;-2.514;2023-06-26T01:05:40;2.1166666666666667;1.5833333333333333;
46381;PMS5003;66809;52.974;-2.514;2023-06-26T01:07:41;2.1666666666666665;1.6333333333333333;
46381;PMS5003;66809;52.974;-2.514;2023-06-26T01:09:40;2.15;1.65;
46381;PMS5003;66809;52.974;-2.514;2023-06-26T01:11:41;2.183333333333333;1.6666666666666667;
46381;PMS5003;66809;52.974;-2.514;2023-06-26T01:13:41;2.3;1.7333333333333334;
46381;PMS5003;66809;52.974;-2.514;2023-06-26T01:15:41;2.3;1.75;
46381;PMS5003;66809;52.974;-2.514;2023-06-26T01:17:40;2.3;1.7333333333333334;
46381;PMS5003;66809;52.974;-2.514;2023-06-26T01:19:40;2.3666666666666667;1.75;
46381;PMS5003;66809;52.974;-2.514;2023-06-26T01:21:42;2.3666666666666667;1.7666666666666666;
46381;PMS5003;66809;52.974;-2.514;2023-06-26T01:23:44;2.3666666666666667;1.7833333333333334;
46381;PMS5003;66809;52.974;-2.514;2023-06-26T01:25:42;2.3833333333333333;1.8166666666666667;
46381;PMS5003;66809;52.974;-2.514;2023-06-26T01:27:40;2.4833333333333334;1.8833333333333333;
46381;PMS5003;66809;52.974;-2.514;2023-06-26T01:29:41;2.466666666666667;1.9166666666666667;
46381;PMS5003;66809;52.974;-2.514;2023-06-26T01:31:40;2.466666666666667;1.9333333333333333;
46381;PMS5003;66809;52.974;-2.514;2023-06-26T01:33:41;2.4833333333333334;2.0;
46381;PMS5003;66809;52.974;-2.514;2023-06-26T01:35:40;2.566666666666667;2.033333333333333;
46381;PMS5003;66809;52.974;-2.514;2023-06-26T01:37:41;2.6333333333333333;2.066666666666667;
46381;PMS5003;66809;52.974;-2.514;2023-06-26T01:39:40;2.6333333333333333;2.0833333333333335;
46381;PMS5003;66809;52.974;-2.514;2023-06-26T01:41:40;2.65;2.1333333333333333;
46381;PMS5003;66809;52.974;-2.514;2023-06-26T01:43:43;2.716666666666667;2.183333333333333;
46381;PMS5003;66809;52.974;-2.514;2023-06-26T01:45:40;2.75;2.183333333333333;
46381;PMS5003;66809;52.974;-2.514;2023-06-26T01:47:40;2.8333333333333335;2.2666666666666666;
46381;PMS5003;66809;52.974;-2.514;2023-06-26T01:49:42;2.9166666666666665;2.316666666666667;
46381;PMS5003;66809;52.974;-2.514;2023-06-26T01:51:41;2.8833333333333333;2.3333333333333335;
46381;PMS5003;66809;52.974;-2.514;2023-06-26T01:53:41;2.8833333333333333;2.3333333333333335;
46381;PMS5003;66809;52.974;-2.514;2023-06-26T01:55:42;2.85;2.35;
46381;PMS5003;66809;52.974;-2.514;2023-06-26T01:57:40;2.9166666666666665;2.4;
46381;PMS5003;66809;52.974;-2.514;2023-06-26T01:59:40;2.966666666666667;2.3666666666666667;
46381;PMS5003;66809;52.974;-2.514;2023-06-26T02:01:40;3.0;2.3666666666666667;
46381;PMS5003;66809;52.974;-2.514;2023-06-26T02:03:40;3.0166666666666666;2.3833333333333333;
46381;PMS5003;66809;52.974;-2.514;2023-06-26T02:05:41;2.966666666666667;2.3333333333333335;
46381;PMS5003;66809;52.974;-2.514;2023-06-26T02:07:40;2.966666666666667;2.3333333333333335;
46381;PMS5003;66809;52.974;-2.514;2023-06-26T02:09:40;2.966666666666667;2.3333333333333335;
46381;PMS5003;66809;52.974;-2.514;2023-06-26T02:11:40;2.933333333333333;2.316666666666667;
46381;PMS5003;66809;52.974;-2.514;2023-06-26T02:13:40;2.8666666666666667;2.283333333333333;
46381;PMS5003;66809;52.974;-2.514;2023-06-26T02:15:40;2.933333333333333;2.3;
46381;PMS5003;66809;52.974;-2.514;2023-06-26T02:17:41;2.95;2.3;
46381;PMS5003;66809;52.974;-2.514;2023-06-26T02:19:40;2.9166666666666665;2.316666666666667;
46381;PMS5003;66809;52.974;-2.514;2023-06-26T02:21:40;2.95;2.316666666666667;
46381;PMS5003;66809;52.974;-2.514;2023-06-26T02:23:41;2.966666666666667;2.3;
46381;PMS5003;66809;52.974;-2.514;2023-06-26T02:25:41;2.966666666666667;2.2666666666666666;
46381;PMS5003;66809;52.974;-2.514;2023-06-26T02:27:40;2.85;2.2333333333333334;
46381;PMS5003;66809;52.974;-2.514;2023-06-26T02:29:40;2.8833333333333333;2.2666666666666666;
46381;PMS5003;66809;52.974;-2.514;2023-06-26T02:31:40;2.8333333333333335;2.2;
46381;PMS5003;66809;52.974;-2.514;2023-06-26T02:33:41;2.816666666666667;2.1666666666666665;
46381;PMS5003;66809;52.974;-2.514;2023-06-26T02:35:40;2.9166666666666665;2.2666666666666666;
46381;PMS5003;66809;52.974;-2.514;2023-06-26T02:37:40;2.85;2.2666666666666666;
46381;PMS5003;66809;52.974;-2.514;2023-06-26T02:39:41;2.85;2.2666666666666666;
46381;PMS5003;66809;52.974;-2.514;2023-06-26T02:41:40;2.75;2.2;
46381;PMS5003;66809;52.974;-2.514;2023-06-26T02:43:40;2.7666666666666666;2.2;
46381;PMS5003;66809;52.974;-2.514;2023-06-26T02:45:41;2.683333333333333;2.15;
46381;PMS5003;66809;52.974;-2.514;2023-06-26T02:47:40;2.6166666666666667;2.066666666666667;
46381;PMS5003;66809;52.974;-2.514;2023-06-26T02:49:40;2.5833333333333335;2.066666666666667;
46381;PMS5003;66809;52.974;-2.514;2023-06-26T02:51:41;2.5833333333333335;2.066666666666667;
46381;PMS5003;66809;52.974;-2.514;2023-06-26T02:53:40;2.6;2.05;
46381;PMS5003;66809;52.974;-2.514;2023-06-26T02:55:40;2.5833333333333335;2.033333333333333;
46381;PMS5003;66809;52.974;-2.514;2023-06-26T02:57:40;2.533333333333333;2.0;
46381;PMS5003;66809;52.974;-2.514;2023-06-26T02:59:40;2.466666666666667;2.0166666666666666;
46381;PMS5003;66809;52.974;-2.514;2023-06-26T03:01:41;2.45;2.0166666666666666;
46381;PMS5003;66809;52.974;-2.514;2023-06-26T03:03:40;2.4833333333333334;2.033333333333333;
46381;PMS5003;66809;52.974;-2.514;2023-06-26T03:05:40;2.5;2.066666666666667;
46381;PMS5003;66809;52.974;-2.514;2023-06-26T03:07:41;2.433333333333333;2.0;
46381;PMS5003;66809;52.974;-2.514;2023-06-26T03:09:40;2.4166666666666665;1.9666666666666666;
46381;PMS5003;66809;52.974;-2.514;2023-06-26T03:11:40;2.45;1.95;
46381;PMS5003;66809;52.974;-2.514;2023-06-26T03:13:41;2.4833333333333334;2.0;
46381;PMS5003;66809;52.974;-2.514;2023-06-26T03:15:40;2.4833333333333334;2.0166666666666666;
46381;PMS5003;66809;52.974;-2.514;2023-06-26T03:17:41;2.4166666666666665;1.9833333333333334;
46381;PMS5003;66809;52.974;-2.514;2023-06-26T03:19:40;2.5166666666666666;2.0166666666666666;
46381;PMS5003;66809;52.974;-2.514;2023-06-26T03:21:40;2.566666666666667;2.066666666666667;
46381;PMS5003;66809;52.974;-2.514;2023-06-26T03:23:41;2.5833333333333335;2.1;
46381;PMS5003;66809;52.974;-2.514;2023-06-26T03:25:40;2.6;2.1166666666666667;
46381;PMS5003;66809;52.974;-2.514;2023-06-26T03:27:41;2.6166666666666667;2.1333333333333333;
46381;PMS5003;66809;52.974;-2.514;2023-06-26T03:29:40;2.6166666666666667;2.1333333333333333;
46381;PMS5003;66809;52.974;-2.514;2023-06-26T03:31:40;2.683333333333333;2.1666666666666665;
46381;PMS5003;66809;52.974;-2.514;2023-06-26T03:33:41;2.683333333333333;2.183333333333333;
46381;PMS5003;66809;52.974;-2.514;2023-06-26T03:35:40;2.55;2.1;
46381;PMS5003;66809;52.974;-2.514;2023-06-26T03:37:40;2.5;2.066666666666667;
46381;PMS5003;66809;52.974;-2.514;2023-06-26T03:39:41;2.5166666666666666;2.033333333333333;
46381;PMS5003;66809;52.974;-2.514;2023-06-26T03:41:40;2.6166666666666667;2.1166666666666667;
46381;PMS5003;66809;52.974;-2.514;2023-06-26T03:43:40;2.5833333333333335;2.1166666666666667;
46381;PMS5003;66809;52.974;-2.514;2023-06-26T03:45:41;2.6333333333333333;2.1333333333333333;
46381;PMS5003;66809;52.974;-2.514;2023-06-26T03:47:40;2.65;2.1666666666666665;
46381;PMS5003;66809;52.974;-2.514;2023-06-26T03:49:40;2.6166666666666667;2.1333333333333333;
46381;PMS5003;66809;52.974;-2.514;2023-06-26T03:51:40;2.65;2.1166666666666667;
46381;PMS5003;66809;52.974;-2.514;2023-06-26T03:53:40;2.6166666666666667;2.0833333333333335;
46381;PMS5003;66809;52.974;-2.514;2023-06-26T03:55:41;2.65;2.1166666666666667;
46381;PMS5003;66809;52.974;-2.514;2023-06-26T03:57:40;2.6666666666666665;2.1333333333333333;
46381;PMS5003;66809;52.974;-2.514;2023-06-26T03:59:40;2.6333333333333333;2.0833333333333335;
46381;PMS5003;66809;52.974;-2.514;2023-06-26T04:01:41;2.6166666666666667;2.066666666666667;
46381;PMS5003;66809;52.974;-2.514;2023-06-26T04:03:40;2.566666666666667;2.0166666666666666;
46381;PMS5003;66809;52.974;-2.514;2023-06-26T04:05:40;2.533333333333333;1.9833333333333334;
46381;PMS5003;66809;52.974;-2.514;2023-06-26T04:07:41;2.566666666666667;2.0166666666666666;
46381;PMS5003;66809;52.974;-2.514;2023-06-26T04:09:40;2.6166666666666667;2.05;
46381;PMS5003;66809;52.974;-2.514;2023-06-26T04:11:40;2.5833333333333335;2.066666666666667;
46381;PMS5003;66809;52.974;-2.514;2023-06-26T04:13:41;2.5833333333333335;2.033333333333333;
46381;PMS5003;66809;52.974;-2.514;2023-06-26T04:15:40;2.55;2.033333333333333;
46381;PMS5003;66809;52.974;-2.514;2023-06-26T04:17:40;2.6333333333333333;2.1;
46381;PMS5003;66809;52.974;-2.514;2023-06-26T04:19:40;2.55;2.05;
46381;PMS5003;66809;52.974;-2.514;2023-06-26T04:21:40;2.5;2.033333333333333;
46381;PMS5003;66809;52.974;-2.514;2023-06-26T04:23:40;2.5;2.0166666666666666;
46381;PMS5003;66809;52.974;-2.514;2023-06-26T04:25:41;2.466666666666667;1.9833333333333334;
46381;PMS5003;66809;52.974;-2.514;2023-06-26T04:27:40;2.433333333333333;1.95;
46381;PMS5003;66809;52.974;-2.514;2023-06-26T04:29:40;2.4833333333333334;1.95;
46381;PMS5003;66809;52.974;-2.514;2023-06-26T04:31:41;2.466666666666667;1.9666666666666666;
46381;PMS5003;66809;52.974;-2.514;2023-06-26T04:33:40;2.4833333333333334;1.9666666666666666;
46381;PMS5003;66809;52.974;-2.514;2023-06-26T04:35:40;2.533333333333333;1.95;
46381;PMS5003;66809;52.974;-2.514;2023-06-26T04:37:41;2.6;2.0;
46381;PMS5003;66809;52.974;-2.514;2023-06-26T04:39:40;2.533333333333333;1.9833333333333334;
46381;PMS5003;66809;52.974;-2.514;2023-06-26T04:41:40;2.45;1.9166666666666667;
46381;PMS5003;66809;52.974;-2.514;2023-06-26T04:43:41;2.4166666666666665;1.8833333333333333;
46381;PMS5003;66809;52.974;-2.514;2023-06-26T04:45:40;2.466666666666667;1.9166666666666667;
46381;PMS5003;66809;52.974;-2.514;2023-06-26T04:47:40;2.4833333333333334;1.8833333333333333;
46381;PMS5003;66809;52.974;-2.514;2023-06-26T04:49:40;2.533333333333333;1.9166666666666667;
46381;PMS5003;66809;52.974;-2.514;2023-06-26T04:51:40;2.533333333333333;1.95;
46381;PMS5003;66809;52.974;-2.514;2023-06-26T04:53:41;2.533333333333333;1.9833333333333334;
46381;PMS5003;66809;52.974;-2.514;2023-06-26T04:55:40;2.45;1.9;
46381;PMS5003;66809;52.974;-2.514;2023-06-26T04:57:40;2.466666666666667;1.9333333333333333;
46381;PMS5003;66809;52.974;-2.514;2023-06-26T04:59:41;2.466666666666667;1.9333333333333333;
46381;PMS5003;66809;52.974;-2.514;2023-06-26T05:01:40;2.4833333333333334;1.95;
46381;PMS5003;66809;52.974;-2.514;2023-06-26T05:03:40;2.5;1.9833333333333334;
46381;PMS5003;66809;52.974;-2.514;2023-06-26T05:05:41;2.55;2.033333333333333;
46381;PMS5003;66809;52.974;-2.514;2023-06-26T05:07:41;2.6;2.033333333333333;
46381;PMS5003;66809;52.974;-2.514;2023-06-26T05:09:40;2.5833333333333335;2.033333333333333;
46381;PMS5003;66809;52.974;-2.514;2023-06-26T05:11:40;2.5833333333333335;2.033333333333333;
46381;PMS5003;66809;52.974;-2.514;2023-06-26T05:13:41;2.6;2.066666666666667;
46381;PMS5003;66809;52.974;-2.514;2023-06-26T05:15:40;2.5833333333333335;2.05;
46381;PMS5003;66809;52.974;-2.514;2023-06-26T05:17:40;2.533333333333333;2.0;
46381;PMS5003;66809;52.974;-2.514;2023-06-26T05:19:40;2.5166666666666666;2.0;
46381;PMS5003;66809;52.974;-2.514;2023-06-26T05:21:41;2.533333333333333;2.0;
46381;PMS5003;66809;52.974;-2.514;2023-06-26T05:23:41;2.5;1.9833333333333334;
46381;PMS5003;66809;52.974;-2.514;2023-06-26T05:25:40;2.533333333333333;2.0;
46381;PMS5003;66809;52.974;-2.514;2023-06-26T05:27:41;2.566666666666667;2.033333333333333;
46381;PMS5003;66809;52.974;-2.514;2023-06-26T05:29:41;2.466666666666667;1.9833333333333334;
46381;PMS5003;66809;52.974;-2.514;2023-06-26T05:31:41;2.466666666666667;2.0;
46381;PMS5003;66809;52.974;-2.514;2023-06-26T05:33:40;2.5;2.0166666666666666;
46381;PMS5003;66809;52.974;-2.514;2023-06-26T05:35:40;2.466666666666667;2.033333333333333;
46381;PMS5003;66809;52.974;-2.514;2023-06-26T05:37:41;2.4;1.9833333333333334;
46381;PMS5003;66809;52.974;-2.514;2023-06-26T05:39:41;2.433333333333333;2.0166666666666666;
46381;PMS5003;66809;52.974;-2.514;2023-06-26T05:41:40;2.45;2.033333333333333;
46381;PMS5003;66809;52.974;-2.514;2023-06-26T05:43:40;2.5;2.066666666666667;
46381;PMS5003;66809;52.974;-2.514;2023-06-26T05:45:40;2.466666666666667;2.05;
46381;PMS5003;66809;52.974;-2.514;2023-06-26T05:47:40;2.45;2.066666666666667;
46381;PMS5003;66809;52.974;-2.514;2023-06-26T05:49:41;2.4166666666666665;2.05;
46381;PMS5003;66809;52.974;-2.514;2023-06-26T05:51:41;2.3666666666666667;2.0166666666666666;
46381;PMS5003;66809;52.974;-2.514;2023-06-26T05:53:41;2.3833333333333333;2.033333333333333;
46381;PMS5003;66809;52.974;-2.514;2023-06-26T05:55:41;2.433333333333333;2.0833333333333335;
46381;PMS5003;66809;52.974;-2.514;2023-06-26T05:57:40;2.4166666666666665;2.033333333333333;
46381;PMS5003;66809;52.974;-2.514;2023-06-26T05:59:40;2.466666666666667;2.1;
46381;PMS5003;66809;52.974;-2.514;2023-06-26T06:01:40;2.433333333333333;2.0833333333333335;
46381;PMS5003;66809;52.974;-2.514;2023-06-26T06:03:40;2.45;2.0833333333333335;
46381;PMS5003;66809;52.974;-2.514;2023-06-26T06:05:41;2.4833333333333334;2.0833333333333335;
46381;PMS5003;66809;52.974;-2.514;2023-06-26T06:07:40;2.466666666666667;2.1;
46381;PMS5003;66809;52.974;-2.514;2023-06-26T06:09:40;2.45;2.1;
46381;PMS5003;66809;52.974;-2.514;2023-06-26T06:11:41;2.466666666666667;2.1166666666666667;
46381;PMS5003;66809;52.974;-2.514;2023-06-26T06:13:40;2.45;2.1166666666666667;
46381;PMS5003;66809;52.974;-2.514;2023-06-26T06:15:40;2.466666666666667;2.1;
46381;PMS5003;66809;52.974;-2.514;2023-06-26T06:17:40;2.466666666666667;2.0833333333333335;
46381;PMS5003;66809;52.974;-2.514;2023-06-26T06:19:41;2.466666666666667;2.1;
46381;PMS5003;66809;52.974;-2.514;2023-06-26T06:21:40;2.5;2.066666666666667;
46381;PMS5003;66809;52.974;-2.514;2023-06-26T06:23:40;2.5166666666666666;2.066666666666667;
46381;PMS5003;66809;52.974;-2.514;2023-06-26T06:25:41;2.5;2.0833333333333335;
46381;PMS5003;66809;52.974;-2.514;2023-06-26T06:27:40;2.4833333333333334;2.05;
46381;PMS5003;66809;52.974;-2.514;2023-06-26T06:29:40;2.533333333333333;2.1;
46381;PMS5003;66809;52.974;-2.514;2023-06-26T06:31:41;2.566666666666667;2.1333333333333333;
46381;PMS5003;66809;52.974;-2.514;2023-06-26T06:33:40;2.6;2.2;
46381;PMS5003;66809;52.974;-2.514;2023-06-26T06:35:40;2.6;2.216666666666667;
46381;PMS5003;66809;52.974;-2.514;2023-06-26T06:37:41;2.65;2.25;
46381;PMS5003;66809;52.974;-2.514;2023-06-26T06:39:40;2.683333333333333;2.25;
46381;PMS5003;66809;52.974;-2.514;2023-06-26T06:41:40;2.683333333333333;2.25;
46381;PMS5003;66809;52.974;-2.514;2023-06-26T06:43:41;2.6666666666666665;2.25;
46381;PMS5003;66809;52.974;-2.514;2023-06-26T06:45:41;2.6666666666666665;2.283333333333333;
46381;PMS5003;66809;52.974;-2.514;2023-06-26T06:47:40;2.716666666666667;2.3333333333333335;
46381;PMS5003;66809;52.974;-2.514;2023-06-26T06:49:40;2.716666666666667;2.3333333333333335;
46381;PMS5003;66809;52.974;-2.514;2023-06-26T06:51:41;2.7666666666666666;2.3333333333333335;
46381;PMS5003;66809;52.974;-2.514;2023-06-26T06:53:40;2.783333333333333;2.35;
46381;PMS5003;66809;52.974;-2.514;2023-06-26T06:55:40;2.8333333333333335;2.3333333333333335;
46381;PMS5003;66809;52.974;-2.514;2023-06-26T06:57:40;2.85;2.316666666666667;
46381;PMS5003;66809;52.974;-2.514;2023-06-26T06:59:40;2.8;2.2666666666666666;
46381;PMS5003;66809;52.974;-2.514;2023-06-26T07:01:41;2.85;2.2666666666666666;
46381;PMS5003;66809;52.974;-2.514;2023-06-26T07:03:40;2.8333333333333335;2.2666666666666666;
46381;PMS5003;66809;52.974;-2.514;2023-06-26T07:05:41;2.816666666666667;2.2666666666666666;
46381;PMS5003;66809;52.974;-2.514;2023-06-26T07:07:41;2.816666666666667;2.283333333333333;
46381;PMS5003;66809;52.974;-2.514;2023-06-26T07:09:41;2.8666666666666667;2.3;
46381;PMS5003;66809;52.974;-2.514;2023-06-26T07:11:40;2.8833333333333333;2.3;
46381;PMS5003;66809;52.974;-2.514;2023-06-26T07:13:40;2.8833333333333333;2.3;
46381;PMS5003;66809;52.974;-2.514;2023-06-26T07:15:40;2.816666666666667;2.2666666666666666;
46381;PMS5003;66809;52.974;-2.514;2023-06-26T07:17:40;2.8333333333333335;2.3;
46381;PMS5003;66809;52.974;-2.514;2023-06-26T07:19:40;2.8333333333333335;2.2666666666666666;
46381;PMS5003;66809;52.974;-2.514;2023-06-26T07:21:41;2.7666666666666666;2.2666666666666666;
46381;PMS5003;66809;52.974;-2.514;2023-06-26T07:23:40;2.85;2.316666666666667;
46381;PMS5003;66809;52.974;-2.514;2023-06-26T07:25:40;2.783333333333333;2.2666666666666666;
46381;PMS5003;66809;52.974;-2.514;2023-06-26T07:27:41;2.783333333333333;2.283333333333333;
46381;PMS5003;66809;52.974;-2.514;2023-06-26T07:29:40;2.8;2.25;
46381;PMS5003;66809;52.974;-2.514;2023-06-26T07:31:40;2.7666666666666666;2.216666666666667;
46381;PMS5003;66809;52.974;-2.514;2023-06-26T07:33:41;2.6666666666666665;2.1166666666666667;
46381;PMS5003;66809;52.974;-2.514;2023-06-26T07:35:40;2.6;2.05;
46381;PMS5003;66809;52.974;-2.514;2023-06-26T07:37:40;2.65;2.066666666666667;
46381;PMS5003;66809;52.974;-2.514;2023-06-26T07:39:41;2.6;2.05;
46381;PMS5003;66809;52.974;-2.514;2023-06-26T07:41:40;2.65;2.1;
46381;PMS5003;66809;52.974;-2.514;2023-06-26T07:43:40;2.6333333333333333;2.0833333333333335;
46381;PMS5003;66809;52.974;-2.514;2023-06-26T07:45:41;2.6166666666666667;2.05;
46381;PMS5003;66809;52.974;-2.514;2023-06-26T07:47:40;2.5166666666666666;1.9666666666666666;
46381;PMS5003;66809;52.974;-2.514;2023-06-26T07:49:40;2.5;1.95;
46381;PMS5003;66809;52.974;-2.514;2023-06-26T07:51:40;2.5;1.95;
46381;PMS5003;66809;52.974;-2.514;2023-06-26T07:53:41;2.533333333333333;1.95;
46381;PMS5003;66809;52.974;-2.514;2023-06-26T07:55:40;2.466666666666667;1.95;
46381;PMS5003;66809;52.974;-2.514;2023-06-26T07:57:40;2.466666666666667;2.0;
46381;PMS5003;66809;52.974;-2.514;2023-06-26T07:59:41;2.466666666666667;1.9666666666666666;
46381;PMS5003;66809;52.974;-2.514;2023-06-26T08:01:40;2.4;1.9333333333333333;
46381;PMS5003;66809;52.974;-2.514;2023-06-26T08:03:40;2.466666666666667;1.9666666666666666;
46381;PMS5003;66809;52.974;-2.514;2023-06-26T08:05:40;2.466666666666667;1.9333333333333333;
46381;PMS5003;66809;52.974;-2.514;2023-06-26T08:07:40;2.5;1.9166666666666667;
46381;PMS5003;66809;52.974;-2.514;2023-06-26T08:09:40;2.5166666666666666;1.9333333333333333;
46381;PMS5003;66809;52.974;-2.514;2023-06-26T08:11:41;2.5166666666666666;1.9;
46381;PMS5003;66809;52.974;-2.514;2023-06-26T08:13:40;2.466666666666667;1.85;
46381;PMS5003;66809;52.974;-2.514;2023-06-26T08:15:41;2.55;1.9333333333333333;
46381;PMS5003;66809;52.974;-2.514;2023-06-26T08:17:40;2.533333333333333;1.9;
46381;PMS5003;66809;52.974;-2.514;2023-06-26T08:19:40;2.55;1.9333333333333333;
46381;PMS5003;66809;52.974;-2.514;2023-06-26T08:21:40;2.5833333333333335;1.9833333333333334;
46381;PMS5003;66809;52.974;-2.514;2023-06-26T08:23:40;2.466666666666667;1.9333333333333333;
46381;PMS5003;66809;52.974;-2.514;2023-06-26T08:25:40;2.566666666666667;2.0;
46381;PMS5003;66809;52.974;-2.514;2023-06-26T08:27:41;2.55;1.9833333333333334;
46381;PMS5003;66809;52.974;-2.514;2023-06-26T08:29:40;2.4833333333333334;1.9666666666666666;
46381;PMS5003;66809;52.974;-2.514;2023-06-26T08:31:41;2.4833333333333334;1.95;
46381;PMS5003;66809;52.974;-2.514;2023-06-26T08:33:40;2.566666666666667;2.0166666666666666;
46381;PMS5003;66809;52.974;-2.514;2023-06-26T08:35:41;2.6333333333333333;2.0833333333333335;
46381;PMS5003;66809;52.974;-2.514;2023-06-26T08:37:40;2.566666666666667;2.066666666666667;
46381;PMS5003;66809;52.974;-2.514;2023-06-26T08:39:40;2.5833333333333335;2.0833333333333335;
46381;PMS5003;66809;52.974;-2.514;2023-06-26T08:41:41;2.533333333333333;2.0;
46381;PMS5003;66809;52.974;-2.514;2023-06-26T08:43:40;2.6;2.0166666666666666;
46381;PMS5003;66809;52.974;-2.514;2023-06-26T08:45:40;2.6333333333333333;2.066666666666667;
46381;PMS5003;66809;52.974;-2.514;2023-06-26T08:47:40;2.65;2.0833333333333335;
46381;PMS5003;66809;52.974;-2.514;2023-06-26T08:49:43;2.7333333333333334;2.1333333333333333;
46381;PMS5003;66809;52.974;-2.514;2023-06-26T08:51:41;2.683333333333333;2.1166666666666667;
46381;PMS5003;66809;52.974;-2.514;2023-06-26T08:53:43;2.6333333333333333;2.066666666666667;
46381;PMS5003;66809;52.974;-2.514;2023-06-26T08:55:41;2.65;2.066666666666667;
46381;PMS5003;66809;52.974;-2.514;2023-06-26T08:57:41;2.683333333333333;2.066666666666667;
46381;PMS5003;66809;52.974;-2.514;2023-06-26T08:59:40;2.7;2.066666666666667;
46381;PMS5003;66809;52.974;-2.514;2023-06-26T09:01:40;2.75;2.0833333333333335;
46381;PMS5003;66809;52.974;-2.514;2023-06-26T09:03:40;2.716666666666667;2.05;
46381;PMS5003;66809;52.974;-2.514;2023-06-26T09:05:41;2.6666666666666665;2.05;
46381;PMS5003;66809;52.974;-2.514;2023-06-26T09:07:40;2.65;2.05;
46381;PMS5003;66809;52.974;-2.514;2023-06-26T09:09:40;2.5833333333333335;1.9833333333333334;
46381;PMS5003;66809;52.974;-2.514;2023-06-26T09:11:41;2.5833333333333335;2.0;
46381;PMS5003;66809;52.974;-2.514;2023-06-26T09:13:40;2.75;2.033333333333333;
46381;PMS5003;66809;52.974;-2.514;2023-06-26T09:15:42;2.7;1.95;
46381;PMS5003;66809;52.974;-2.514;2023-06-26T09:17:41;2.75;1.9333333333333333;
46381;PMS5003;66809;52.974;-2.514;2023-06-26T09:19:40;2.783333333333333;1.9333333333333333;
46381;PMS5003;66809;52.974;-2.514;2023-06-26T09:21:41;2.716666666666667;1.85;
46381;PMS5003;66809;52.974;-2.514;2023-06-26T09:23:41;2.7;1.8333333333333333;
46381;PMS5003;66809;52.974;-2.514;2023-06-26T09:25:40;2.6666666666666665;1.8;
46381;PMS5003;66809;52.974;-2.514;2023-06-26T09:27:40;2.7;1.7833333333333334;
46381;PMS5003;66809;52.974;-2.514;2023-06-26T09:29:41;2.7;1.7833333333333334;
46381;PMS5003;66809;52.974;-2.514;2023-06-26T09:31:40;2.65;1.75;